カシュガル の空港の天気 - METARとTAF

カシュガル空港 ( ZWSH / KHG ) - 中国 新疆ウイグル自治区カシュガル市
飛行場実況気象(Metar)
観測時間12/14 14:00 CST (12/14 06:00 UTC)
風向・風速不定 1m/s
視程6000m
天気現象
なし
気温-2℃
湿度39%
気圧1030hPa
METARZWSH 140600Z VRB01MPS 6000 NSC M02/M14 Q1030 NOSIG
過去の天気等 Google飛行場航空写真 Wunderground天気予報

過去48時間のMETAR

飛行場予報(TAF)
発表時間: 12/14 11:10 CST (12/14 03:10 UTC)
予報対象時間: 14日14時 CST ~ 15日14時 CST
風向・風速東北東 4m/s
視程6000m
なし
14日22時 CST ~ 14日23時 CST に徐々に
風向・風速北北西 4m/s
TAF ZWSH 140310Z 1406/1506 06004MPS 6000 NSC TXM01/09Z TNM11/00Z
BECMG 1414/1415 33004MPS